sensor_id;sensor_type;location;lat;lon;timestamp;P1;durP1;ratioP1;P2;durP2;ratioP2
48623;SDS011;34422;45.802;16.114;2023-06-14T00:00:41;8.38;;;5.07;;
48623;SDS011;34422;45.802;16.114;2023-06-14T00:03:08;10.15;;;5.47;;
48623;SDS011;34422;45.802;16.114;2023-06-14T00:05:43;10.63;;;5.05;;
48623;SDS011;34422;45.802;16.114;2023-06-14T00:08:10;9.10;;;5.93;;
48623;SDS011;34422;45.802;16.114;2023-06-14T00:10:37;7.93;;;5.00;;
48623;SDS011;34422;45.802;16.114;2023-06-14T00:13:10;9.35;;;6.07;;
48623;SDS011;34422;45.802;16.114;2023-06-14T00:15:37;11.38;;;7.47;;
48623;SDS011;34422;45.802;16.114;2023-06-14T00:18:04;12.73;;;7.90;;
48623;SDS011;34422;45.802;16.114;2023-06-14T00:20:32;11.20;;;5.60;;
48623;SDS011;34422;45.802;16.114;2023-06-14T00:23:00;9.00;;;6.20;;
48623;SDS011;34422;45.802;16.114;2023-06-14T00:25:27;10.52;;;6.15;;
48623;SDS011;34422;45.802;16.114;2023-06-14T00:27:55;10.93;;;5.93;;
48623;SDS011;34422;45.802;16.114;2023-06-14T00:30:24;9.05;;;5.85;;
48623;SDS011;34422;45.802;16.114;2023-06-14T00:32:51;10.60;;;5.18;;
48623;SDS011;34422;45.802;16.114;2023-06-14T00:35:18;8.13;;;5.28;;
48623;SDS011;34422;45.802;16.114;2023-06-14T00:37:45;7.53;;;4.45;;
48623;SDS011;34422;45.802;16.114;2023-06-14T00:40:12;7.97;;;5.10;;
48623;SDS011;34422;45.802;16.114;2023-06-14T00:42:39;11.45;;;4.72;;
48623;SDS011;34422;45.802;16.114;2023-06-14T00:45:06;8.15;;;4.57;;
48623;SDS011;34422;45.802;16.114;2023-06-14T00:47:33;9.90;;;5.07;;
48623;SDS011;34422;45.802;16.114;2023-06-14T00:50:01;7.80;;;4.90;;
48623;SDS011;34422;45.802;16.114;2023-06-14T00:52:28;8.25;;;4.82;;
48623;SDS011;34422;45.802;16.114;2023-06-14T00:54:56;9.00;;;5.18;;
48623;SDS011;34422;45.802;16.114;2023-06-14T00:57:22;7.78;;;5.00;;
48623;SDS011;34422;45.802;16.114;2023-06-14T00:59:50;8.55;;;4.95;;
48623;SDS011;34422;45.802;16.114;2023-06-14T01:02:17;9.07;;;5.47;;
48623;SDS011;34422;45.802;16.114;2023-06-14T01:04:47;8.70;;;4.90;;
48623;SDS011;34422;45.802;16.114;2023-06-14T01:12:44;6.80;;;4.03;;
48623;SDS011;34422;45.802;16.114;2023-06-14T01:15:18;7.32;;;4.20;;
48623;SDS011;34422;45.802;16.114;2023-06-14T01:17:48;8.13;;;4.35;;
48623;SDS011;34422;45.802;16.114;2023-06-14T01:20:19;6.70;;;3.63;;
48623;SDS011;34422;45.802;16.114;2023-06-14T01:22:51;9.00;;;4.32;;
48623;SDS011;34422;45.802;16.114;2023-06-14T01:25:19;8.02;;;4.65;;
48623;SDS011;34422;45.802;16.114;2023-06-14T01:27:52;9.10;;;4.10;;
48623;SDS011;34422;45.802;16.114;2023-06-14T01:30:21;7.95;;;4.00;;
48623;SDS011;34422;45.802;16.114;2023-06-14T01:32:52;6.05;;;4.20;;
48623;SDS011;34422;45.802;16.114;2023-06-14T01:35:21;8.45;;;4.90;;
48623;SDS011;34422;45.802;16.114;2023-06-14T01:37:48;8.05;;;4.68;;
48623;SDS011;34422;45.802;16.114;2023-06-14T01:40:16;7.90;;;4.07;;
48623;SDS011;34422;45.802;16.114;2023-06-14T01:42:44;7.90;;;3.92;;
48623;SDS011;34422;45.802;16.114;2023-06-14T01:45:14;7.10;;;4.07;;
48623;SDS011;34422;45.802;16.114;2023-06-14T01:47:43;9.32;;;4.90;;
48623;SDS011;34422;45.802;16.114;2023-06-14T01:50:11;9.23;;;4.72;;
48623;SDS011;34422;45.802;16.114;2023-06-14T01:52:38;8.85;;;4.45;;
48623;SDS011;34422;45.802;16.114;2023-06-14T01:55:05;9.57;;;5.38;;
48623;SDS011;34422;45.802;16.114;2023-06-14T01:57:32;8.32;;;5.03;;
48623;SDS011;34422;45.802;16.114;2023-06-14T01:59:59;11.40;;;5.57;;
48623;SDS011;34422;45.802;16.114;2023-06-14T02:02:26;8.82;;;4.45;;
48623;SDS011;34422;45.802;16.114;2023-06-14T02:04:53;11.68;;;4.20;;
48623;SDS011;34422;45.802;16.114;2023-06-14T02:07:23;9.13;;;3.92;;
48623;SDS011;34422;45.802;16.114;2023-06-14T02:09:50;7.05;;;3.83;;
48623;SDS011;34422;45.802;16.114;2023-06-14T02:12:17;6.30;;;4.18;;
48623;SDS011;34422;45.802;16.114;2023-06-14T02:14:44;6.68;;;3.85;;
48623;SDS011;34422;45.802;16.114;2023-06-14T02:17:11;9.00;;;4.05;;
48623;SDS011;34422;45.802;16.114;2023-06-14T02:19:38;11.00;;;4.70;;
48623;SDS011;34422;45.802;16.114;2023-06-14T02:22:05;9.25;;;3.80;;
48623;SDS011;34422;45.802;16.114;2023-06-14T02:24:32;7.82;;;3.85;;
48623;SDS011;34422;45.802;16.114;2023-06-14T02:26:58;7.82;;;4.00;;
48623;SDS011;34422;45.802;16.114;2023-06-14T02:29:26;6.18;;;3.75;;
48623;SDS011;34422;45.802;16.114;2023-06-14T02:31:53;7.65;;;4.28;;
48623;SDS011;34422;45.802;16.114;2023-06-14T02:34:19;8.05;;;3.83;;
48623;SDS011;34422;45.802;16.114;2023-06-14T02:36:48;9.07;;;4.28;;
48623;SDS011;34422;45.802;16.114;2023-06-14T02:39:14;8.13;;;4.40;;
48623;SDS011;34422;45.802;16.114;2023-06-14T02:41:41;6.63;;;3.67;;
48623;SDS011;34422;45.802;16.114;2023-06-14T02:44:09;9.35;;;4.30;;
48623;SDS011;34422;45.802;16.114;2023-06-14T02:46:38;6.82;;;4.30;;
48623;SDS011;34422;45.802;16.114;2023-06-14T02:49:05;12.27;;;4.32;;
48623;SDS011;34422;45.802;16.114;2023-06-14T02:51:32;8.85;;;4.40;;
48623;SDS011;34422;45.802;16.114;2023-06-14T02:53:58;8.65;;;4.82;;
48623;SDS011;34422;45.802;16.114;2023-06-14T02:56:25;6.82;;;4.35;;
48623;SDS011;34422;45.802;16.114;2023-06-14T02:58:52;8.20;;;3.60;;
48623;SDS011;34422;45.802;16.114;2023-06-14T03:01:19;6.53;;;3.53;;
48623;SDS011;34422;45.802;16.114;2023-06-14T03:03:47;5.45;;;3.50;;
48623;SDS011;34422;45.802;16.114;2023-06-14T03:06:14;7.10;;;3.95;;
48623;SDS011;34422;45.802;16.114;2023-06-14T03:08:43;7.75;;;4.32;;
48623;SDS011;34422;45.802;16.114;2023-06-14T03:11:10;7.10;;;4.03;;
48623;SDS011;34422;45.802;16.114;2023-06-14T03:13:37;7.55;;;4.20;;
48623;SDS011;34422;45.802;16.114;2023-06-14T03:16:05;8.50;;;4.40;;
48623;SDS011;34422;45.802;16.114;2023-06-14T03:18:32;9.55;;;3.92;;
48623;SDS011;34422;45.802;16.114;2023-06-14T03:21:02;7.10;;;3.97;;
48623;SDS011;34422;45.802;16.114;2023-06-14T03:23:29;8.30;;;4.60;;
48623;SDS011;34422;45.802;16.114;2023-06-14T03:25:56;8.65;;;4.90;;
48623;SDS011;34422;45.802;16.114;2023-06-14T03:28:23;7.25;;;4.40;;
48623;SDS011;34422;45.802;16.114;2023-06-14T03:30:50;7.53;;;4.78;;
48623;SDS011;34422;45.802;16.114;2023-06-14T03:33:17;7.68;;;4.38;;
48623;SDS011;34422;45.802;16.114;2023-06-14T03:35:44;7.25;;;4.82;;
48623;SDS011;34422;45.802;16.114;2023-06-14T03:38:11;9.88;;;4.90;;
48623;SDS011;34422;45.802;16.114;2023-06-14T03:40:38;9.73;;;5.53;;
48623;SDS011;34422;45.802;16.114;2023-06-14T03:43:06;10.88;;;4.93;;
48623;SDS011;34422;45.802;16.114;2023-06-14T03:45:33;10.02;;;5.80;;
48623;SDS011;34422;45.802;16.114;2023-06-14T03:47:59;8.95;;;5.25;;
48623;SDS011;34422;45.802;16.114;2023-06-14T03:50:27;8.60;;;5.07;;
48623;SDS011;34422;45.802;16.114;2023-06-14T03:52:53;9.82;;;5.00;;
48623;SDS011;34422;45.802;16.114;2023-06-14T03:55:21;7.57;;;4.78;;
48623;SDS011;34422;45.802;16.114;2023-06-14T03:57:47;8.73;;;5.20;;
48623;SDS011;34422;45.802;16.114;2023-06-14T04:00:14;9.30;;;5.00;;
48623;SDS011;34422;45.802;16.114;2023-06-14T04:02:41;9.98;;;4.57;;
48623;SDS011;34422;45.802;16.114;2023-06-14T04:05:08;9.35;;;5.22;;
48623;SDS011;34422;45.802;16.114;2023-06-14T04:07:35;6.97;;;4.38;;
48623;SDS011;34422;45.802;16.114;2023-06-14T04:10:11;8.40;;;5.03;;
48623;SDS011;34422;45.802;16.114;2023-06-14T04:12:39;7.47;;;4.25;;
48623;SDS011;34422;45.802;16.114;2023-06-14T04:15:07;7.93;;;4.18;;
48623;SDS011;34422;45.802;16.114;2023-06-14T04:17:35;8.68;;;3.60;;
48623;SDS011;34422;45.802;16.114;2023-06-14T04:20:03;6.35;;;3.58;;
48623;SDS011;34422;45.802;16.114;2023-06-14T04:22:32;10.73;;;3.88;;
48623;SDS011;34422;45.802;16.114;2023-06-14T04:25:00;6.80;;;3.85;;
48623;SDS011;34422;45.802;16.114;2023-06-14T04:27:27;6.47;;;4.13;;
48623;SDS011;34422;45.802;16.114;2023-06-14T04:29:57;7.43;;;3.78;;
48623;SDS011;34422;45.802;16.114;2023-06-14T04:32:25;5.55;;;3.15;;
48623;SDS011;34422;45.802;16.114;2023-06-14T04:34:56;6.57;;;3.70;;
48623;SDS011;34422;45.802;16.114;2023-06-14T04:37:24;5.78;;;3.40;;
48623;SDS011;34422;45.802;16.114;2023-06-14T04:39:51;6.63;;;3.20;;
48623;SDS011;34422;45.802;16.114;2023-06-14T04:42:18;6.10;;;3.60;;
48623;SDS011;34422;45.802;16.114;2023-06-14T04:44:46;6.03;;;3.35;;
48623;SDS011;34422;45.802;16.114;2023-06-14T04:47:15;6.20;;;3.60;;
48623;SDS011;34422;45.802;16.114;2023-06-14T04:49:42;8.10;;;3.42;;
48623;SDS011;34422;45.802;16.114;2023-06-14T04:52:09;8.27;;;3.92;;
48623;SDS011;34422;45.802;16.114;2023-06-14T04:54:36;10.50;;;3.45;;
48623;SDS011;34422;45.802;16.114;2023-06-14T04:57:06;7.93;;;3.40;;
48623;SDS011;34422;45.802;16.114;2023-06-14T04:59:33;10.20;;;4.05;;
48623;SDS011;34422;45.802;16.114;2023-06-14T05:02:01;8.02;;;3.53;;
48623;SDS011;34422;45.802;16.114;2023-06-14T05:04:28;6.05;;;3.22;;
48623;SDS011;34422;45.802;16.114;2023-06-14T05:06:55;7.15;;;3.63;;
48623;SDS011;34422;45.802;16.114;2023-06-14T05:09:22;6.70;;;3.75;;
48623;SDS011;34422;45.802;16.114;2023-06-14T05:11:50;5.65;;;3.17;;
48623;SDS011;34422;45.802;16.114;2023-06-14T05:14:16;9.52;;;4.15;;
48623;SDS011;34422;45.802;16.114;2023-06-14T05:16:44;16.45;;;4.70;;
48623;SDS011;34422;45.802;16.114;2023-06-14T05:19:11;11.98;;;3.70;;
48623;SDS011;34422;45.802;16.114;2023-06-14T05:21:38;11.75;;;4.28;;
48623;SDS011;34422;45.802;16.114;2023-06-14T05:24:05;11.05;;;4.78;;
48623;SDS011;34422;45.802;16.114;2023-06-14T05:26:33;10.57;;;4.13;;
48623;SDS011;34422;45.802;16.114;2023-06-14T05:29:00;7.90;;;3.55;;
48623;SDS011;34422;45.802;16.114;2023-06-14T05:31:27;6.40;;;3.00;;
48623;SDS011;34422;45.802;16.114;2023-06-14T05:33:54;11.63;;;4.05;;
48623;SDS011;34422;45.802;16.114;2023-06-14T05:36:21;11.32;;;3.65;;
48623;SDS011;34422;45.802;16.114;2023-06-14T05:38:48;12.63;;;4.38;;
48623;SDS011;34422;45.802;16.114;2023-06-14T05:41:17;7.18;;;4.10;;
48623;SDS011;34422;45.802;16.114;2023-06-14T05:43:44;7.93;;;4.20;;
48623;SDS011;34422;45.802;16.114;2023-06-14T05:46:10;8.68;;;3.45;;
48623;SDS011;34422;45.802;16.114;2023-06-14T05:48:37;8.05;;;3.92;;
48623;SDS011;34422;45.802;16.114;2023-06-14T05:51:04;8.43;;;4.63;;
48623;SDS011;34422;45.802;16.114;2023-06-14T05:53:35;7.13;;;3.60;;
48623;SDS011;34422;45.802;16.114;2023-06-14T05:56:01;5.65;;;3.20;;
48623;SDS011;34422;45.802;16.114;2023-06-14T05:58:28;9.38;;;3.60;;
48623;SDS011;34422;45.802;16.114;2023-06-14T06:00:55;11.35;;;4.18;;
48623;SDS011;34422;45.802;16.114;2023-06-14T06:03:22;7.47;;;3.15;;
48623;SDS011;34422;45.802;16.114;2023-06-14T06:05:49;8.27;;;3.03;;
48623;SDS011;34422;45.802;16.114;2023-06-14T06:08:15;7.07;;;3.50;;
48623;SDS011;34422;45.802;16.114;2023-06-14T06:10:43;7.47;;;3.95;;
48623;SDS011;34422;45.802;16.114;2023-06-14T06:13:10;6.75;;;3.15;;
48623;SDS011;34422;45.802;16.114;2023-06-14T06:15:37;7.75;;;3.47;;
48623;SDS011;34422;45.802;16.114;2023-06-14T06:18:03;7.35;;;3.25;;
48623;SDS011;34422;45.802;16.114;2023-06-14T06:20:30;7.18;;;3.17;;
48623;SDS011;34422;45.802;16.114;2023-06-14T06:22:58;7.03;;;3.17;;
48623;SDS011;34422;45.802;16.114;2023-06-14T06:25:25;7.47;;;3.33;;
48623;SDS011;34422;45.802;16.114;2023-06-14T06:27:53;6.85;;;3.10;;
48623;SDS011;34422;45.802;16.114;2023-06-14T06:30:21;6.03;;;2.55;;
48623;SDS011;34422;45.802;16.114;2023-06-14T06:32:48;6.78;;;3.17;;
48623;SDS011;34422;45.802;16.114;2023-06-14T06:35:15;6.65;;;3.25;;
48623;SDS011;34422;45.802;16.114;2023-06-14T06:37:42;7.03;;;2.90;;
48623;SDS011;34422;45.802;16.114;2023-06-14T06:40:10;7.38;;;3.40;;
48623;SDS011;34422;45.802;16.114;2023-06-14T06:42:37;7.57;;;3.42;;
48623;SDS011;34422;45.802;16.114;2023-06-14T06:45:04;7.65;;;3.28;;
48623;SDS011;34422;45.802;16.114;2023-06-14T06:47:31;5.63;;;2.50;;
48623;SDS011;34422;45.802;16.114;2023-06-14T06:49:58;8.23;;;2.83;;
48623;SDS011;34422;45.802;16.114;2023-06-14T06:52:25;7.32;;;3.40;;
48623;SDS011;34422;45.802;16.114;2023-06-14T06:54:52;7.68;;;3.10;;
48623;SDS011;34422;45.802;16.114;2023-06-14T06:57:21;8.43;;;3.70;;
48623;SDS011;34422;45.802;16.114;2023-06-14T06:59:52;10.80;;;3.25;;
48623;SDS011;34422;45.802;16.114;2023-06-14T07:02:18;9.32;;;3.78;;
48623;SDS011;34422;45.802;16.114;2023-06-14T07:04:45;5.60;;;3.50;;
48623;SDS011;34422;45.802;16.114;2023-06-14T07:07:16;10.70;;;3.80;;
48623;SDS011;34422;45.802;16.114;2023-06-14T07:09:43;9.90;;;3.35;;
48623;SDS011;34422;45.802;16.114;2023-06-14T07:12:11;8.73;;;3.45;;
48623;SDS011;34422;45.802;16.114;2023-06-14T07:14:38;11.40;;;3.30;;
48623;SDS011;34422;45.802;16.114;2023-06-14T07:17:05;6.63;;;3.22;;
48623;SDS011;34422;45.802;16.114;2023-06-14T07:19:32;9.73;;;3.65;;
48623;SDS011;34422;45.802;16.114;2023-06-14T07:21:59;6.70;;;3.10;;
48623;SDS011;34422;45.802;16.114;2023-06-14T07:24:26;6.75;;;3.20;;
48623;SDS011;34422;45.802;16.114;2023-06-14T07:26:54;6.25;;;3.10;;
48623;SDS011;34422;45.802;16.114;2023-06-14T07:29:22;10.77;;;3.65;;
48623;SDS011;34422;45.802;16.114;2023-06-14T07:31:49;6.40;;;3.72;;
48623;SDS011;34422;45.802;16.114;2023-06-14T07:34:16;7.20;;;2.92;;
48623;SDS011;34422;45.802;16.114;2023-06-14T07:36:43;6.45;;;3.20;;
48623;SDS011;34422;45.802;16.114;2023-06-14T07:39:11;9.18;;;3.40;;
48623;SDS011;34422;45.802;16.114;2023-06-14T07:41:38;6.93;;;3.40;;
48623;SDS011;34422;45.802;16.114;2023-06-14T07:44:05;7.15;;;3.20;;
48623;SDS011;34422;45.802;16.114;2023-06-14T07:46:31;9.18;;;3.25;;
48623;SDS011;34422;45.802;16.114;2023-06-14T07:48:58;7.15;;;3.10;;
48623;SDS011;34422;45.802;16.114;2023-06-14T07:51:25;9.07;;;3.38;;
48623;SDS011;34422;45.802;16.114;2023-06-14T07:53:52;7.93;;;2.97;;
48623;SDS011;34422;45.802;16.114;2023-06-14T07:56:18;5.28;;;2.80;;
48623;SDS011;34422;45.802;16.114;2023-06-14T07:58:45;6.38;;;3.00;;
48623;SDS011;34422;45.802;16.114;2023-06-14T08:01:13;6.25;;;2.85;;
48623;SDS011;34422;45.802;16.114;2023-06-14T08:03:40;6.13;;;2.88;;
48623;SDS011;34422;45.802;16.114;2023-06-14T08:06:07;6.93;;;2.60;;
48623;SDS011;34422;45.802;16.114;2023-06-14T08:08:34;10.90;;;2.65;;
48623;SDS011;34422;45.802;16.114;2023-06-14T08:11:01;7.18;;;2.67;;
48623;SDS011;34422;45.802;16.114;2023-06-14T08:13:27;8.02;;;3.00;;
48623;SDS011;34422;45.802;16.114;2023-06-14T08:15:54;5.55;;;3.17;;
48623;SDS011;34422;45.802;16.114;2023-06-14T08:18:23;6.07;;;2.90;;
48623;SDS011;34422;45.802;16.114;2023-06-14T08:20:50;5.05;;;2.50;;
48623;SDS011;34422;45.802;16.114;2023-06-14T08:23:18;6.35;;;2.53;;
48623;SDS011;34422;45.802;16.114;2023-06-14T08:25:47;4.88;;;2.60;;
48623;SDS011;34422;45.802;16.114;2023-06-14T08:28:14;5.63;;;2.50;;
48623;SDS011;34422;45.802;16.114;2023-06-14T08:30:44;7.95;;;2.88;;
48623;SDS011;34422;45.802;16.114;2023-06-14T08:33:11;4.72;;;2.65;;
48623;SDS011;34422;45.802;16.114;2023-06-14T08:35:38;6.50;;;2.50;;
48623;SDS011;34422;45.802;16.114;2023-06-14T08:38:05;4.90;;;2.58;;
48623;SDS011;34422;45.802;16.114;2023-06-14T08:40:32;8.35;;;3.05;;
48623;SDS011;34422;45.802;16.114;2023-06-14T08:43:04;7.47;;;3.03;;
48623;SDS011;34422;45.802;16.114;2023-06-14T08:45:32;8.63;;;2.92;;
48623;SDS011;34422;45.802;16.114;2023-06-14T08:47:59;6.78;;;3.10;;
48623;SDS011;34422;45.802;16.114;2023-06-14T08:50:26;13.88;;;3.55;;
48623;SDS011;34422;45.802;16.114;2023-06-14T08:53:00;12.45;;;3.08;;
48623;SDS011;34422;45.802;16.114;2023-06-14T08:55:29;9.02;;;3.00;;
48623;SDS011;34422;45.802;16.114;2023-06-14T08:57:57;8.70;;;3.13;;
48623;SDS011;34422;45.802;16.114;2023-06-14T09:00:25;5.55;;;3.00;;
48623;SDS011;34422;45.802;16.114;2023-06-14T09:05:24;5.28;;;2.53;;
48623;SDS011;34422;45.802;16.114;2023-06-14T09:07:52;9.85;;;2.67;;
48623;SDS011;34422;45.802;16.114;2023-06-14T09:12:48;6.63;;;2.83;;
48623;SDS011;34422;45.802;16.114;2023-06-14T09:15:15;7.07;;;3.33;;
48623;SDS011;34422;45.802;16.114;2023-06-14T09:17:43;6.60;;;3.25;;
48623;SDS011;34422;45.802;16.114;2023-06-14T09:20:10;5.22;;;3.05;;
48623;SDS011;34422;45.802;16.114;2023-06-14T09:22:37;7.72;;;2.78;;
48623;SDS011;34422;45.802;16.114;2023-06-14T09:25:04;5.40;;;2.78;;
48623;SDS011;34422;45.802;16.114;2023-06-14T09:27:32;5.30;;;3.30;;
48623;SDS011;34422;45.802;16.114;2023-06-14T09:29:59;5.22;;;2.40;;
48623;SDS011;34422;45.802;16.114;2023-06-14T09:32:26;5.75;;;3.42;;
48623;SDS011;34422;45.802;16.114;2023-06-14T09:34:53;6.32;;;3.20;;
48623;SDS011;34422;45.802;16.114;2023-06-14T09:37:27;7.60;;;3.10;;
48623;SDS011;34422;45.802;16.114;2023-06-14T09:39:56;4.32;;;2.30;;
48623;SDS011;34422;45.802;16.114;2023-06-14T09:42:23;4.90;;;2.60;;
48623;SDS011;34422;45.802;16.114;2023-06-14T09:44:56;9.90;;;3.10;;
48623;SDS011;34422;45.802;16.114;2023-06-14T09:47:23;5.20;;;2.70;;
48623;SDS011;34422;45.802;16.114;2023-06-14T09:49:51;6.20;;;3.20;;
48623;SDS011;34422;45.802;16.114;2023-06-14T09:52:21;6.68;;;2.83;;
48623;SDS011;34422;45.802;16.114;2023-06-14T09:54:53;5.28;;;3.00;;
48623;SDS011;34422;45.802;16.114;2023-06-14T09:57:22;6.43;;;2.70;;
48623;SDS011;34422;45.802;16.114;2023-06-14T09:59:52;5.45;;;3.10;;
48623;SDS011;34422;45.802;16.114;2023-06-14T10:02:36;7.40;;;3.75;;
48623;SDS011;34422;45.802;16.114;2023-06-14T10:05:05;6.22;;;3.10;;
48623;SDS011;34422;45.802;16.114;2023-06-14T10:07:38;5.97;;;3.20;;
48623;SDS011;34422;45.802;16.114;2023-06-14T10:10:08;7.00;;;3.08;;
48623;SDS011;34422;45.802;16.114;2023-06-14T10:12:36;4.93;;;2.70;;
48623;SDS011;34422;45.802;16.114;2023-06-14T10:15:04;11.25;;;10.02;;
48623;SDS011;34422;45.802;16.114;2023-06-14T10:23:00;10.63;;;6.78;;
48623;SDS011;34422;45.802;16.114;2023-06-14T10:25:35;5.55;;;2.83;;
48623;SDS011;34422;45.802;16.114;2023-06-14T10:28:02;7.15;;;3.60;;
48623;SDS011;34422;45.802;16.114;2023-06-14T10:30:30;7.78;;;3.10;;
48623;SDS011;34422;45.802;16.114;2023-06-14T10:33:04;7.00;;;3.08;;
48623;SDS011;34422;45.802;16.114;2023-06-14T10:35:32;6.30;;;3.22;;
48623;SDS011;34422;45.802;16.114;2023-06-14T10:38:10;6.53;;;3.55;;
48623;SDS011;34422;45.802;16.114;2023-06-14T10:40:38;5.25;;;2.88;;
48623;SDS011;34422;45.802;16.114;2023-06-14T10:43:20;5.28;;;2.88;;
48623;SDS011;34422;45.802;16.114;2023-06-14T10:48:56;8.25;;;4.00;;
48623;SDS011;34422;45.802;16.114;2023-06-14T10:51:24;6.75;;;3.53;;
48623;SDS011;34422;45.802;16.114;2023-06-14T10:53:57;7.53;;;3.63;;
48623;SDS011;34422;45.802;16.114;2023-06-14T10:56:29;6.28;;;3.03;;
48623;SDS011;34422;45.802;16.114;2023-06-14T10:58:57;7.05;;;2.80;;
48623;SDS011;34422;45.802;16.114;2023-06-14T11:01:31;5.78;;;3.15;;
48623;SDS011;34422;45.802;16.114;2023-06-14T11:04:11;6.45;;;3.08;;
48623;SDS011;34422;45.802;16.114;2023-06-14T11:09:12;7.05;;;2.85;;
48623;SDS011;34422;45.802;16.114;2023-06-14T11:11:53;14.05;;;3.50;;
48623;SDS011;34422;45.802;16.114;2023-06-14T11:14:22;7.30;;;5.20;;
48623;SDS011;34422;45.802;16.114;2023-06-14T11:16:49;12.55;;;7.28;;
48623;SDS011;34422;45.802;16.114;2023-06-14T11:19:17;6.97;;;3.45;;
48623;SDS011;34422;45.802;16.114;2023-06-14T11:21:46;4.55;;;2.40;;
48623;SDS011;34422;45.802;16.114;2023-06-14T11:24:14;5.38;;;2.75;;
48623;SDS011;34422;45.802;16.114;2023-06-14T11:26:40;7.30;;;3.20;;
48623;SDS011;34422;45.802;16.114;2023-06-14T11:29:07;5.80;;;2.97;;
48623;SDS011;34422;45.802;16.114;2023-06-14T11:31:34;5.00;;;2.72;;
48623;SDS011;34422;45.802;16.114;2023-06-14T11:34:01;9.85;;;3.53;;
48623;SDS011;34422;45.802;16.114;2023-06-14T11:36:33;8.35;;;3.50;;
48623;SDS011;34422;45.802;16.114;2023-06-14T11:39:04;6.15;;;2.78;;
48623;SDS011;34422;45.802;16.114;2023-06-14T11:41:36;6.10;;;3.20;;
48623;SDS011;34422;45.802;16.114;2023-06-14T11:44:09;6.45;;;2.88;;
48623;SDS011;34422;45.802;16.114;2023-06-14T11:46:36;6.43;;;2.67;;
48623;SDS011;34422;45.802;16.114;2023-06-14T11:49:03;6.18;;;3.75;;
48623;SDS011;34422;45.802;16.114;2023-06-14T11:51:32;10.30;;;6.35;;
48623;SDS011;34422;45.802;16.114;2023-06-14T11:54:03;6.88;;;3.28;;
48623;SDS011;34422;45.802;16.114;2023-06-14T11:56:31;7.88;;;3.20;;
48623;SDS011;34422;45.802;16.114;2023-06-14T11:58:59;6.80;;;2.55;;
48623;SDS011;34422;45.802;16.114;2023-06-14T12:01:26;4.82;;;2.80;;
48623;SDS011;34422;45.802;16.114;2023-06-14T12:03:53;5.53;;;2.90;;
48623;SDS011;34422;45.802;16.114;2023-06-14T12:06:28;7.15;;;2.97;;
48623;SDS011;34422;45.802;16.114;2023-06-14T12:08:59;7.32;;;3.75;;
48623;SDS011;34422;45.802;16.114;2023-06-14T12:11:33;6.95;;;2.95;;
48623;SDS011;34422;45.802;16.114;2023-06-14T12:14:03;8.52;;;6.43;;
48623;SDS011;34422;45.802;16.114;2023-06-14T12:16:32;5.95;;;3.22;;
48623;SDS011;34422;45.802;16.114;2023-06-14T12:19:01;10.80;;;3.03;;
48623;SDS011;34422;45.802;16.114;2023-06-14T12:21:37;6.55;;;3.30;;
48623;SDS011;34422;45.802;16.114;2023-06-14T12:24:05;6.97;;;3.38;;
48623;SDS011;34422;45.802;16.114;2023-06-14T12:26:33;7.25;;;2.85;;
48623;SDS011;34422;45.802;16.114;2023-06-14T12:29:00;8.10;;;3.22;;
48623;SDS011;34422;45.802;16.114;2023-06-14T12:31:27;4.65;;;2.50;;
48623;SDS011;34422;45.802;16.114;2023-06-14T12:33:53;8.45;;;2.85;;
48623;SDS011;34422;45.802;16.114;2023-06-14T12:36:20;8.35;;;2.90;;
48623;SDS011;34422;45.802;16.114;2023-06-14T12:38:47;7.10;;;3.03;;
48623;SDS011;34422;45.802;16.114;2023-06-14T12:41:14;6.70;;;3.05;;
48623;SDS011;34422;45.802;16.114;2023-06-14T12:43:41;6.80;;;2.80;;
48623;SDS011;34422;45.802;16.114;2023-06-14T12:46:08;7.07;;;2.80;;
48623;SDS011;34422;45.802;16.114;2023-06-14T12:48:35;6.13;;;2.65;;
48623;SDS011;34422;45.802;16.114;2023-06-14T12:51:02;12.32;;;3.20;;
48623;SDS011;34422;45.802;16.114;2023-06-14T12:53:29;5.13;;;2.65;;
48623;SDS011;34422;45.802;16.114;2023-06-14T12:55:55;7.15;;;3.10;;
48623;SDS011;34422;45.802;16.114;2023-06-14T12:58:22;5.50;;;2.42;;
48623;SDS011;34422;45.802;16.114;2023-06-14T13:00:50;5.82;;;3.05;;
48623;SDS011;34422;45.802;16.114;2023-06-14T13:03:17;5.72;;;2.50;;
48623;SDS011;34422;45.802;16.114;2023-06-14T13:05:44;4.75;;;2.40;;
48623;SDS011;34422;45.802;16.114;2023-06-14T13:08:11;8.80;;;2.50;;
48623;SDS011;34422;45.802;16.114;2023-06-14T13:10:38;7.50;;;2.50;;
48623;SDS011;34422;45.802;16.114;2023-06-14T13:13:04;5.70;;;3.28;;
48623;SDS011;34422;45.802;16.114;2023-06-14T13:15:33;6.32;;;2.95;;
48623;SDS011;34422;45.802;16.114;2023-06-14T13:18:01;6.50;;;2.67;;
48623;SDS011;34422;45.802;16.114;2023-06-14T13:20:29;5.32;;;2.40;;
48623;SDS011;34422;45.802;16.114;2023-06-14T13:22:56;6.60;;;2.65;;
48623;SDS011;34422;45.802;16.114;2023-06-14T13:25:23;8.15;;;2.90;;
48623;SDS011;34422;45.802;16.114;2023-06-14T13:27:50;10.43;;;2.80;;
48623;SDS011;34422;45.802;16.114;2023-06-14T13:30:16;4.85;;;2.60;;
48623;SDS011;34422;45.802;16.114;2023-06-14T13:32:44;5.50;;;2.83;;
48623;SDS011;34422;45.802;16.114;2023-06-14T13:35:11;7.05;;;2.90;;
48623;SDS011;34422;45.802;16.114;2023-06-14T13:37:37;6.43;;;3.35;;
48623;SDS011;34422;45.802;16.114;2023-06-14T13:40:04;5.13;;;2.72;;
48623;SDS011;34422;45.802;16.114;2023-06-14T13:42:32;6.07;;;2.80;;
48623;SDS011;34422;45.802;16.114;2023-06-14T13:44:59;8.68;;;3.45;;
48623;SDS011;34422;45.802;16.114;2023-06-14T13:47:26;11.25;;;3.10;;
48623;SDS011;34422;45.802;16.114;2023-06-14T13:49:52;11.32;;;3.72;;
48623;SDS011;34422;45.802;16.114;2023-06-14T13:52:19;5.88;;;2.80;;
48623;SDS011;34422;45.802;16.114;2023-06-14T13:54:47;7.72;;;3.13;;
48623;SDS011;34422;45.802;16.114;2023-06-14T13:57:14;6.85;;;3.17;;
48623;SDS011;34422;45.802;16.114;2023-06-14T13:59:40;5.22;;;2.53;;
48623;SDS011;34422;45.802;16.114;2023-06-14T14:02:08;6.10;;;2.88;;
48623;SDS011;34422;45.802;16.114;2023-06-14T14:04:34;6.55;;;3.00;;
48623;SDS011;34422;45.802;16.114;2023-06-14T14:07:02;9.93;;;3.33;;
48623;SDS011;34422;45.802;16.114;2023-06-14T14:09:30;12.68;;;3.63;;
48623;SDS011;34422;45.802;16.114;2023-06-14T14:11:57;7.05;;;2.80;;
48623;SDS011;34422;45.802;16.114;2023-06-14T14:14:25;5.10;;;2.90;;
48623;SDS011;34422;45.802;16.114;2023-06-14T14:16:52;5.22;;;2.95;;
48623;SDS011;34422;45.802;16.114;2023-06-14T14:19:21;4.90;;;2.63;;
48623;SDS011;34422;45.802;16.114;2023-06-14T14:21:48;5.85;;;3.55;;
48623;SDS011;34422;45.802;16.114;2023-06-14T14:24:15;7.05;;;2.90;;
48623;SDS011;34422;45.802;16.114;2023-06-14T14:26:42;8.95;;;3.80;;
48623;SDS011;34422;45.802;16.114;2023-06-14T14:29:09;8.63;;;4.57;;
48623;SDS011;34422;45.802;16.114;2023-06-14T14:31:37;7.68;;;3.55;;
48623;SDS011;34422;45.802;16.114;2023-06-14T14:34:04;7.60;;;3.17;;
48623;SDS011;34422;45.802;16.114;2023-06-14T14:36:31;6.88;;;2.83;;
48623;SDS011;34422;45.802;16.114;2023-06-14T14:39:00;6.68;;;3.10;;
48623;SDS011;34422;45.802;16.114;2023-06-14T14:41:27;5.95;;;2.72;;
48623;SDS011;34422;45.802;16.114;2023-06-14T14:43:54;7.60;;;2.80;;
48623;SDS011;34422;45.802;16.114;2023-06-14T14:46:21;6.28;;;2.97;;
48623;SDS011;34422;45.802;16.114;2023-06-14T14:48:48;9.18;;;2.95;;
48623;SDS011;34422;45.802;16.114;2023-06-14T14:51:14;6.95;;;2.78;;
48623;SDS011;34422;45.802;16.114;2023-06-14T14:53:41;6.35;;;3.15;;
48623;SDS011;34422;45.802;16.114;2023-06-14T14:56:08;7.88;;;3.10;;
48623;SDS011;34422;45.802;16.114;2023-06-14T14:58:35;7.78;;;2.80;;